Hartford, Michigan
Current Conditions -  °F | °C
As of 1:15 AM on Thursday 29 Jan 2015 (Local Time) from KLWA Reporting Station
Overcast Overcast  
Wind Chill: 23°   Ceiling: 8500
Heat Index: 32°   Visibility: 10mi
Dew Point: 19°   Wind: 12mph
Humidity: 59%   Direction: 170°S
Pressure: 29.89"   Gusts: 18mph
Location:  42.21°N, 86.17°W
Report Text: KLWA 290615Z AUTO 17010G16KT 10SM BKN085 OVC120 00/M07 A2989 RMK AO2 T00011070
Loading
Personal Weather Stations






























Interactive Weather Map New forecast layout! Learn more

10-Day Weather Forecast

Advertisements
Track Severe Weather on mobile